createdAt,value
2022-12-14T00:01:37.847Z,95478.47
2022-12-14T00:04:34.709Z,95483.66
2022-12-14T00:07:31.582Z,95471.59
2022-12-14T00:10:28.676Z,95471.72
2022-12-14T00:13:25.506Z,95474.56
2022-12-14T00:16:24.018Z,95463.94
2022-12-14T00:19:20.849Z,95472.75
2022-12-14T00:22:17.661Z,95469.28
2022-12-14T00:25:14.671Z,95468.47
2022-12-14T00:28:11.661Z,95464.63
2022-12-14T00:31:08.810Z,95462.59
2022-12-14T00:34:05.682Z,95458.19
2022-12-14T00:37:02.592Z,95458.00
2022-12-14T00:39:59.413Z,95451.41
2022-12-14T00:42:56.253Z,95451.22
2022-12-14T00:45:53.486Z,95452.56
2022-12-14T00:48:50.407Z,95449.50
2022-12-14T00:51:47.253Z,95440.84
2022-12-14T00:54:44.633Z,95440.47
2022-12-14T00:57:41.507Z,95443.22
2022-12-14T01:00:38.810Z,95446.84
2022-12-14T01:03:35.906Z,95443.13
2022-12-14T01:06:32.797Z,95455.53
2022-12-14T01:09:29.599Z,95450.94
2022-12-14T01:12:26.515Z,95446.28
2022-12-14T01:15:23.463Z,95441.31
2022-12-14T01:18:20.318Z,95451.59
2022-12-14T01:21:24.013Z,95449.13
2022-12-14T01:24:20.847Z,95447.88
2022-12-14T01:27:17.839Z,95445.97
2022-12-14T01:30:14.844Z,95453.66
2022-12-14T01:33:11.736Z,95458.44
2022-12-14T01:36:16.449Z,95448.91
2022-12-14T01:39:15.953Z,95450.97
2022-12-14T01:42:14.833Z,95446.28
2022-12-14T01:45:21.823Z,95440.41
2022-12-14T01:48:18.869Z,95438.94
2022-12-14T01:51:15.843Z,95441.53
2022-12-14T01:54:15.088Z,95443.69
2022-12-14T01:57:13.805Z,95444.81
2022-12-14T02:00:16.884Z,95433.97
2022-12-14T02:03:18.798Z,95438.41
2022-12-14T02:06:33.022Z,95436.13
2022-12-14T02:09:35.895Z,95437.25
2022-12-14T02:12:44.177Z,95433.84
2022-12-14T02:15:41.808Z,95418.94
2022-12-14T02:18:38.737Z,95412.94
2022-12-14T02:21:56.577Z,95405.34
2022-12-14T02:25:33.982Z,95405.59
2022-12-14T02:29:17.342Z,95400.72
2022-12-14T02:32:30.487Z,95400.16
2022-12-14T02:35:57.032Z,95402.97
2022-12-14T02:39:09.900Z,95402.66
2022-12-14T02:42:40.190Z,95390.44
2022-12-14T02:46:03.236Z,95382.47
2022-12-14T02:49:35.918Z,95376.47
2022-12-14T02:53:07.891Z,95361.09
2022-12-14T02:56:13.230Z,95369.56
2022-12-14T02:59:11.752Z,95359.03
2022-12-14T03:02:10.991Z,95347.19
2022-12-14T03:05:09.117Z,95338.34
2022-12-14T03:08:14.257Z,95336.75
2022-12-14T03:11:19.412Z,95338.44
2022-12-14T03:14:56.028Z,95338.13
2022-12-14T03:17:58.677Z,95332.91
2022-12-14T03:20:59.638Z,95312.63
2022-12-14T03:23:58.967Z,95311.84
2022-12-14T03:27:22.163Z,95313.53
2022-12-14T03:30:43.923Z,95302.13
2022-12-14T03:33:38.108Z,95299.84
2022-12-14T03:37:09.596Z,95284.69
2022-12-14T03:40:14.113Z,95270.19
2022-12-14T03:43:25.469Z,95265.31
2022-12-14T03:46:51.829Z,95267.13
2022-12-14T03:50:08.965Z,95262.03
2022-12-14T03:53:40.215Z,95257.72
2022-12-14T03:57:01.016Z,95268.13
2022-12-14T04:00:10.815Z,95265.53
2022-12-14T04:03:27.552Z,95260.66
2022-12-14T04:06:30.126Z,95250.47
2022-12-14T04:09:41.094Z,95248.22
2022-12-14T04:12:59.583Z,95242.09
2022-12-14T04:16:19.268Z,95236.34
2022-12-14T04:19:44.301Z,95235.84
2022-12-14T04:22:55.443Z,95233.94
2022-12-14T04:26:05.415Z,95228.19
2022-12-14T04:29:31.414Z,95214.56
2022-12-14T04:32:36.124Z,95220.69
2022-12-14T04:35:39.756Z,95198.41
2022-12-14T04:38:39.394Z,95202.22
2022-12-14T04:41:42.872Z,95187.75
2022-12-14T04:44:45.164Z,95193.19
2022-12-14T04:47:52.333Z,95182.53
2022-12-14T04:51:25.234Z,95174.72
2022-12-14T04:54:37.509Z,95180.97
2022-12-14T04:58:05.685Z,95182.19
2022-12-14T05:01:35.503Z,95181.03
2022-12-14T05:04:54.954Z,95187.50
2022-12-14T05:08:10.911Z,95182.53
2022-12-14T05:11:53.495Z,95195.31
2022-12-14T05:15:21.255Z,95186.00
2022-12-14T05:18:18.563Z,95171.66
2022-12-14T05:21:34.235Z,95170.84
2022-12-14T05:24:31.637Z,95160.44
2022-12-14T05:27:28.499Z,95163.78
2022-12-14T05:30:25.450Z,95158.94
2022-12-14T05:33:22.316Z,95160.53
2022-12-14T05:36:19.721Z,95163.00
2022-12-14T05:39:17.278Z,95154.88
2022-12-14T05:42:14.147Z,95156.75
2022-12-14T05:45:14.827Z,95157.22
2022-12-14T05:48:11.744Z,95152.56
2022-12-14T05:51:12.201Z,95158.81
2022-12-14T05:54:09.125Z,95153.38
2022-12-14T05:57:06.935Z,95143.06
2022-12-14T06:00:05.082Z,95155.59
2022-12-14T06:03:01.991Z,95163.41
2022-12-14T06:06:08.471Z,95151.66
2022-12-14T06:09:15.704Z,95150.94
2022-12-14T06:12:12.711Z,95149.06
2022-12-14T06:15:10.119Z,95143.59
2022-12-14T06:18:06.956Z,95135.22
2022-12-14T06:21:03.933Z,95129.09
2022-12-14T06:24:01.981Z,95134.63
2022-12-14T06:26:58.964Z,95125.78
2022-12-14T06:29:55.786Z,95129.72
2022-12-14T06:32:52.637Z,95124.06
2022-12-14T06:35:50.043Z,95113.31
2022-12-14T06:38:47.246Z,95124.06
2022-12-14T06:41:48.582Z,95124.47
2022-12-14T06:44:45.428Z,95117.66
2022-12-14T06:47:42.320Z,95113.34
2022-12-14T06:50:39.157Z,95118.53
2022-12-14T06:53:36.524Z,95120.66
2022-12-14T06:56:33.462Z,95114.13
2022-12-14T06:59:30.361Z,95105.03
2022-12-14T07:02:27.304Z,95103.56
2022-12-14T07:05:24.296Z,95098.88
2022-12-14T07:08:21.159Z,95108.75
2022-12-14T07:11:18.113Z,95092.63
2022-12-14T07:14:17.867Z,95098.25
2022-12-14T07:17:14.718Z,95091.69
2022-12-14T07:20:12.001Z,95089.72
2022-12-14T07:23:08.923Z,95092.09
2022-12-14T07:26:18.739Z,95096.34
2022-12-14T07:29:16.915Z,95085.47
2022-12-14T07:32:13.786Z,95078.81
2022-12-14T07:35:16.363Z,95073.59
2022-12-14T07:38:13.652Z,95065.50
2022-12-14T07:41:23.812Z,95062.16
2022-12-14T07:44:20.923Z,95052.84
2022-12-14T07:47:17.771Z,95054.72
2022-12-14T07:50:14.718Z,95042.63
2022-12-14T07:53:11.597Z,95040.13
2022-12-14T07:56:21.605Z,95033.09
2022-12-14T07:59:19.184Z,95036.25
2022-12-14T08:02:16.452Z,95037.94
2022-12-14T08:05:13.555Z,95046.81
2022-12-14T08:08:10.378Z,95042.44
2022-12-14T08:11:08.115Z,95045.84
2022-12-14T08:14:10.800Z,95034.72
2022-12-14T08:17:08.043Z,95032.84
2022-12-14T08:20:05.717Z,95020.63
2022-12-14T08:23:02.642Z,95003.56
2022-12-14T08:26:00.909Z,95012.97
2022-12-14T08:28:57.781Z,95016.91
2022-12-14T08:31:58.018Z,95002.88
2022-12-14T08:34:54.852Z,95005.00
2022-12-14T08:37:52.744Z,94992.47
2022-12-14T08:40:49.568Z,94992.22
2022-12-14T08:43:54.078Z,94997.78
2022-12-14T08:46:51.012Z,94998.13
2022-12-14T08:49:47.863Z,95004.47
2022-12-14T08:52:48.615Z,95006.16
2022-12-14T08:55:45.815Z,95012.22
2022-12-14T08:58:43.317Z,95003.50
2022-12-14T09:01:40.280Z,94994.69
2022-12-14T09:04:37.230Z,94988.44
2022-12-14T09:07:34.210Z,95003.59
2022-12-14T09:10:31.435Z,95005.47
2022-12-14T09:13:29.330Z,95005.31
2022-12-14T09:16:26.896Z,95019.97
2022-12-14T09:19:23.796Z,95022.41
2022-12-14T09:22:21.674Z,95018.72
2022-12-14T09:25:18.723Z,95003.06
2022-12-14T09:28:15.555Z,95006.25
2022-12-14T09:31:14.808Z,95002.06
2022-12-14T09:34:11.717Z,95008.84
2022-12-14T09:37:08.588Z,94993.25
2022-12-14T09:40:06.959Z,94997.44
2022-12-14T09:43:10.453Z,95000.66
2022-12-14T09:46:42.958Z,94991.28
2022-12-14T09:49:57.134Z,94989.97
2022-12-14T09:52:59.139Z,94991.53
2022-12-14T09:55:57.822Z,94973.50
2022-12-14T09:59:01.920Z,94979.50
2022-12-14T10:02:31.372Z,94973.25
2022-12-14T10:06:16.306Z,94969.31
2022-12-14T10:09:53.907Z,94964.38
2022-12-14T10:13:39.855Z,94965.44
2022-12-14T10:17:05.931Z,94959.97
2022-12-14T10:20:27.459Z,94956.59
2022-12-14T10:23:26.532Z,94968.94
2022-12-14T10:26:41.065Z,94959.25
2022-12-14T10:29:48.885Z,94953.19
2022-12-14T10:33:13.838Z,94949.06
2022-12-14T10:36:51.795Z,94951.19
2022-12-14T10:40:17.612Z,94940.53
2022-12-14T10:43:47.189Z,94943.97
2022-12-14T10:47:12.456Z,94941.63
2022-12-14T10:50:33.884Z,94947.19
2022-12-14T10:54:19.642Z,94942.69
2022-12-14T10:57:26.825Z,94928.03
2022-12-14T11:00:24.056Z,94922.56
2022-12-14T11:03:22.165Z,94925.69
2022-12-14T11:06:20.224Z,94923.63
2022-12-14T11:09:22.565Z,94921.78
2022-12-14T11:12:27.983Z,94906.59
2022-12-14T11:15:40.269Z,94905.53
2022-12-14T11:18:37.554Z,94901.34
2022-12-14T11:21:38.823Z,94893.75
2022-12-14T11:24:46.515Z,94884.31
2022-12-14T11:27:43.452Z,94878.31
2022-12-14T11:30:40.648Z,94874.91
2022-12-14T11:33:56.678Z,94860.75
2022-12-14T11:36:53.666Z,94861.53
2022-12-14T11:39:55.012Z,94850.28
2022-12-14T11:43:01.572Z,94858.41
2022-12-14T11:45:59.356Z,94846.09
2022-12-14T11:48:56.259Z,94843.72
2022-12-14T11:52:02.550Z,94851.31
2022-12-14T11:55:14.704Z,94849.50
2022-12-14T11:58:33.701Z,94851.06
2022-12-14T12:01:31.610Z,94845.00
2022-12-14T12:04:28.640Z,94837.66
2022-12-14T12:07:43.372Z,94832.94
2022-12-14T12:10:45.342Z,94833.44
2022-12-14T12:13:52.648Z,94827.19
2022-12-14T12:16:53.237Z,94831.94
2022-12-14T12:19:51.585Z,94822.75
2022-12-14T12:22:53.483Z,94836.13
2022-12-14T12:25:53.290Z,94822.97
2022-12-14T12:29:43.501Z,94837.69
2022-12-14T12:32:50.249Z,94834.28
2022-12-14T12:35:56.139Z,94841.09
2022-12-14T12:39:14.888Z,94835.31
2022-12-14T12:42:40.347Z,94843.19
2022-12-14T12:45:45.667Z,94840.28
2022-12-14T12:49:04.319Z,94824.00
2022-12-14T12:52:15.747Z,94819.25
2022-12-14T12:55:19.240Z,94821.88
2022-12-14T12:58:36.795Z,94826.91
2022-12-14T13:01:39.402Z,94822.69
2022-12-14T13:04:40.592Z,94817.69
2022-12-14T13:07:43.795Z,94811.94
2022-12-14T13:11:02.379Z,94819.50
2022-12-14T13:14:35.183Z,94819.19
2022-12-14T13:18:33.892Z,94817.94
2022-12-14T13:21:39.428Z,94808.53
2022-12-14T13:24:36.637Z,94810.38
2022-12-14T13:28:23.688Z,94815.13
2022-12-14T13:31:47.279Z,94823.25
2022-12-14T13:34:55.941Z,94835.31
2022-12-14T13:38:32.953Z,94850.53
2022-12-14T13:42:01.153Z,94854.22
2022-12-14T13:45:04.451Z,94861.28
2022-12-14T13:48:06.511Z,94861.00
2022-12-14T13:51:07.434Z,94861.00
2022-12-14T13:54:17.488Z,94854.75
2022-12-14T13:57:24.426Z,94850.78
2022-12-14T14:00:46.649Z,94855.78
2022-12-14T14:03:55.287Z,94855.78
2022-12-14T14:06:55.583Z,94858.41
2022-12-14T14:09:55.398Z,94866.78
2022-12-14T14:12:52.321Z,94864.94
2022-12-14T14:16:27.442Z,94860.78
2022-12-14T14:19:24.459Z,94871.78
2022-12-14T14:22:27.490Z,94866.78
2022-12-14T14:25:33.656Z,94859.72
2022-12-14T14:28:30.925Z,94844.50
2022-12-14T14:32:03.691Z,94841.63
2022-12-14T14:35:07.723Z,94845.28
2022-12-14T14:38:31.088Z,94847.38
2022-12-14T14:41:44.061Z,94848.94
2022-12-14T14:44:53.680Z,94841.34
2022-12-14T14:47:57.159Z,94838.47
2022-12-14T14:51:16.339Z,94845.81
2022-12-14T14:55:03.686Z,94859.94
2022-12-14T14:58:22.278Z,94865.44
2022-12-14T15:01:28.280Z,94855.97
2022-12-14T15:04:51.620Z,94851.78
2022-12-14T15:07:49.117Z,94864.13
2022-12-14T15:10:46.815Z,94869.09
2022-12-14T15:13:58.341Z,94878.22
2022-12-14T15:16:55.331Z,94875.94
2022-12-14T15:20:01.030Z,94885.06
2022-12-14T15:22:58.389Z,94899.69
2022-12-14T15:25:59.151Z,94898.13
2022-12-14T15:29:00.472Z,94901.25
2022-12-14T15:32:00.564Z,94904.41
2022-12-14T15:35:01.005Z,94908.31
2022-12-14T15:38:06.441Z,94901.53
2022-12-14T15:41:12.956Z,94903.34
2022-12-14T15:44:22.564Z,94906.75
2022-12-14T15:47:30.881Z,94915.38
2022-12-14T15:50:32.632Z,94924.25
2022-12-14T15:53:50.349Z,94908.50
2022-12-14T15:56:57.519Z,94910.88
2022-12-14T15:59:57.623Z,94907.22
2022-12-14T16:02:54.910Z,94917.41
2022-12-14T16:05:53.090Z,94914.00
2022-12-14T16:09:28.165Z,94923.97
2022-12-14T16:13:01.550Z,94923.94
2022-12-14T16:16:05.466Z,94926.78
2022-12-14T16:19:26.062Z,94921.31
2022-12-14T16:22:29.436Z,94923.13
2022-12-14T16:25:26.496Z,94916.34
2022-12-14T16:28:36.365Z,94919.19
2022-12-14T16:31:34.068Z,94927.56
2022-12-14T16:34:31.505Z,94929.34
2022-12-14T16:37:33.372Z,94917.09
2022-12-14T16:40:36.377Z,94924.44
2022-12-14T16:43:37.067Z,94939.34
2022-12-14T16:46:34.124Z,94937.00
2022-12-14T16:49:50.691Z,94941.16
2022-12-14T16:52:47.748Z,94943.16
2022-12-14T16:56:03.150Z,94956.81
2022-12-14T16:59:20.328Z,94957.34
2022-12-14T17:02:41.393Z,94961.22
2022-12-14T17:05:41.423Z,94964.09
2022-12-14T17:08:38.371Z,94963.63
2022-12-14T17:11:35.366Z,94966.50
2022-12-14T17:14:32.311Z,94971.72
2022-12-14T17:17:35.692Z,94970.69
2022-12-14T17:20:39.667Z,94971.72
2022-12-14T17:23:43.250Z,94982.16
2022-12-14T17:26:40.306Z,94989.78
2022-12-14T17:29:37.204Z,94986.88
2022-12-14T17:32:34.674Z,94988.31
2022-12-14T17:35:32.856Z,94985.63
2022-12-14T17:38:31.414Z,94986.06
2022-12-14T17:41:28.427Z,94987.38
2022-12-14T17:44:25.290Z,94986.41
2022-12-14T17:47:22.799Z,94986.88
2022-12-14T17:50:20.088Z,94996.78
2022-12-14T17:53:25.098Z,95003.84
2022-12-14T17:56:22.522Z,95009.31
2022-12-14T17:59:20.042Z,95011.69
2022-12-14T18:02:31.460Z,95004.31
2022-12-14T18:05:31.573Z,95005.13
2022-12-14T18:08:28.553Z,95020.81
2022-12-14T18:11:26.992Z,95018.28
2022-12-14T18:14:23.836Z,95021.94
2022-12-14T18:17:20.717Z,95025.56
2022-12-14T18:20:19.610Z,95026.91
2022-12-14T18:23:17.975Z,95025.03
2022-12-14T18:26:20.868Z,95032.94
2022-12-14T18:29:18.257Z,95036.53
2022-12-14T18:32:15.436Z,95036.34
2022-12-14T18:35:24.983Z,95037.28
2022-12-14T18:38:22.065Z,95034.50
2022-12-14T18:41:23.390Z,95028.88
2022-12-14T18:44:20.311Z,95044.97
2022-12-14T18:47:40.697Z,95053.78
2022-12-14T18:50:37.189Z,95056.47
2022-12-14T18:53:36.513Z,95060.28
2022-12-14T18:56:33.500Z,95059.41
2022-12-14T18:59:30.996Z,95057.50
2022-12-14T19:02:28.835Z,95054.56
2022-12-14T19:05:26.685Z,95058.28
2022-12-14T19:08:23.553Z,95058.41
2022-12-14T19:11:34.306Z,95061.38
2022-12-14T19:14:31.136Z,95071.69
2022-12-14T19:17:28.034Z,95072.94
2022-12-14T19:20:26.784Z,95075.47
2022-12-14T19:23:23.659Z,95071.28
2022-12-14T19:26:21.105Z,95077.03
2022-12-14T19:29:18.003Z,95075.19
2022-12-14T19:32:14.933Z,95070.22
2022-12-14T19:35:11.814Z,95073.06
2022-12-14T19:38:18.080Z,95073.66
2022-12-14T19:41:15.716Z,95063.44
2022-12-14T19:44:12.603Z,95064.47
2022-12-14T19:47:09.707Z,95079.31
2022-12-14T19:50:07.979Z,95072.72
2022-12-14T19:53:04.970Z,95083.28
2022-12-14T19:56:01.929Z,95082.25
2022-12-14T19:59:03.593Z,95088.50
2022-12-14T20:02:02.257Z,95086.19
2022-12-14T20:04:59.219Z,95089.09
2022-12-14T20:07:56.150Z,95095.13
2022-12-14T20:10:53.185Z,95107.63
2022-12-14T20:13:56.745Z,95104.66
2022-12-14T20:16:56.091Z,95115.03
2022-12-14T20:19:53.270Z,95119.53
2022-12-14T20:22:50.317Z,95122.94
2022-12-14T20:25:48.361Z,95119.53
2022-12-14T20:28:50.307Z,95125.19
2022-12-14T20:31:47.287Z,95127.38
2022-12-14T20:34:44.319Z,95133.81
2022-12-14T20:37:41.832Z,95137.22
2022-12-14T20:40:39.475Z,95135.28
2022-12-14T20:43:39.268Z,95139.97
2022-12-14T20:46:39.066Z,95140.22
2022-12-14T20:49:38.745Z,95140.16
2022-12-14T20:52:35.623Z,95147.63
2022-12-14T20:55:34.316Z,95149.81
2022-12-14T20:58:31.207Z,95148.78
2022-12-14T21:01:28.266Z,95152.19
2022-12-14T21:04:25.297Z,95154.97
2022-12-14T21:07:26.081Z,95157.34
2022-12-14T21:10:23.211Z,95156.84
2022-12-14T21:13:20.050Z,95169.00
2022-12-14T21:16:16.899Z,95165.47
2022-12-14T21:19:15.853Z,95171.13
2022-12-14T21:22:20.132Z,95176.00
2022-12-14T21:25:17.076Z,95170.97
2022-12-14T21:28:13.907Z,95174.47
2022-12-14T21:31:16.107Z,95166.50
2022-12-14T21:34:21.487Z,95180.72
2022-12-14T21:37:18.898Z,95186.34
2022-12-14T21:40:35.712Z,95180.28
2022-12-14T21:43:32.964Z,95185.50
2022-12-14T21:46:30.076Z,95184.44
2022-12-14T21:49:27.071Z,95186.53
2022-12-14T21:52:27.731Z,95188.09
2022-12-14T21:55:24.555Z,95182.72
2022-12-14T21:58:24.302Z,95189.19
2022-12-14T22:01:21.216Z,95187.00
2022-12-14T22:04:18.162Z,95196.81
2022-12-14T22:07:20.904Z,95189.38
2022-12-14T22:10:21.416Z,95201.53
2022-12-14T22:13:21.550Z,95206.97
2022-12-14T22:16:18.428Z,95210.91
2022-12-14T22:19:22.049Z,95207.09
2022-12-14T22:22:18.992Z,95208.69
2022-12-14T22:25:15.927Z,95205.28
2022-12-14T22:28:12.773Z,95212.28
2022-12-14T22:31:09.607Z,95219.88
2022-12-14T22:34:08.867Z,95217.91
2022-12-14T22:37:05.985Z,95217.53
2022-12-14T22:40:04.223Z,95223.28
2022-12-14T22:43:01.064Z,95231.22
2022-12-14T22:46:03.186Z,95240.63
2022-12-14T22:49:00.636Z,95246.78
2022-12-14T22:51:57.483Z,95244.88
2022-12-14T22:54:54.516Z,95242.78
2022-12-14T22:57:51.646Z,95246.69
2022-12-14T23:00:49.677Z,95240.91
2022-12-14T23:03:47.500Z,95229.25
2022-12-14T23:06:44.923Z,95232.09
2022-12-14T23:10:00.694Z,95232.47
2022-12-14T23:13:16.069Z,95233.56
2022-12-14T23:16:32.294Z,95239.56
2022-12-14T23:19:47.693Z,95236.97
2022-12-14T23:23:03.108Z,95246.50
2022-12-14T23:26:23.079Z,95247.97
2022-12-14T23:29:38.709Z,95247.66
2022-12-14T23:32:54.382Z,95249.78
2022-12-14T23:36:09.775Z,95243.38
2022-12-14T23:39:25.648Z,95244.72
2022-12-14T23:42:41.207Z,95252.06
2022-12-14T23:45:56.949Z,95244.25
2022-12-14T23:49:15.625Z,95252.06
2022-12-14T23:52:31.545Z,95256.50
2022-12-14T23:55:47.170Z,95269.03
2022-12-14T23:59:02.794Z,95264.88
